Time;durP1;ratioP1;P1;durP2;ratioP2;P2;SDS_P1;SDS_P2;PMS_P1;PMS_P2;Temp;Humidity;BMP_temperature;BMP_pressure;BME280_temperature;BME280_humidity;BME280_pressure;Samples;Min_cycle;Max_cycle;Signal;HPM_P1;HPM_P2
2022/03/05 00:06:19;;;;;;;;;;;;;;;20.66;46.27;100610.16;20653115;28;98288;-77
2022/03/05 00:16:20;;;;;;;;;;;;;;;20.66;45.67;100597.00;20646939;28;97600;-77
2022/03/05 00:26:20;;;;;;;;;;;;;;;20.60;45.84;100593.03;20635384;27;99277;-78
2022/03/05 00:36:21;;;;;;;;;;;;;;;20.56;45.95;100594.19;20626789;28;98986;-78
2022/03/05 00:46:21;;;;;;;;;;;;;;;20.53;45.61;100584.75;20637635;27;97973;-77
2022/03/05 00:56:22;;;;;;;;;;;;;;;20.49;45.61;100585.88;20642901;27;97634;-78
2022/03/05 01:06:22;;;;;;;;;;;;;;;20.49;45.58;100578.00;20632435;28;99060;-77
2022/03/05 01:16:23;;;;;;;;;;;;;;;20.43;45.71;100576.66;20633091;27;100376;-77
2022/03/05 01:26:23;;;;;;;;;;;;;;;20.42;45.87;100571.50;20645176;28;101559;-77
2022/03/05 01:36:24;;;;;;;;;;;;;;;20.38;45.79;100573.50;20628133;27;100983;-77
2022/03/05 01:46:28;;;;;;;;;;;;;;;20.37;46.03;100582.34;20636210;27;99693;-77
2022/03/05 01:56:29;;;;;;;;;;;;;;;20.35;45.54;100588.66;20641507;27;97764;-77
2022/03/05 02:06:31;;;;;;;;;;;;;;;20.31;45.78;100594.16;20631190;28;100359;-77
2022/03/05 02:16:31;;;;;;;;;;;;;;;20.26;45.67;100593.63;20634211;27;97853;-77
2022/03/05 02:26:32;;;;;;;;;;;;;;;20.24;45.82;100600.78;20626025;28;101444;-78
2022/03/05 02:36:32;;;;;;;;;;;;;;;20.23;45.47;100596.47;20628870;28;98492;-78
2022/03/05 02:46:34;;;;;;;;;;;;;;;20.20;45.38;100601.09;20627583;28;98519;-78
2022/03/05 02:56:34;;;;;;;;;;;;;;;20.17;45.66;100599.53;20642994;28;101288;-77
2022/03/05 03:06:35;;;;;;;;;;;;;;;20.15;45.80;100597.00;20626335;28;100574;-78
2022/03/05 03:16:35;;;;;;;;;;;;;;;20.13;45.45;100604.16;20649148;28;97809;-77
2022/03/05 03:26:36;;;;;;;;;;;;;;;20.12;45.50;100605.09;20641163;27;98224;-78
2022/03/05 03:36:36;;;;;;;;;;;;;;;20.08;45.69;100602.78;20638842;27;97467;-76
2022/03/05 03:46:37;;;;;;;;;;;;;;;20.07;45.26;100601.13;20639983;27;97567;-77
2022/03/05 03:56:38;;;;;;;;;;;;;;;20.03;45.39;100603.13;20643822;28;98479;-77
2022/03/05 04:16:57;;;;;;;;;;;;;;;19.99;45.71;100610.38;20634760;28;99247;-77
2022/03/05 04:26:58;;;;;;;;;;;;;;;20.02;45.00;100619.84;20626280;28;100517;-77
2022/03/05 04:36:58;;;;;;;;;;;;;;;20.03;45.49;100624.16;20635881;27;99902;-77
2022/03/05 04:47:29;;;;;;;;;;;;;;;20.02;44.92;100625.09;20633056;27;100441;-75
2022/03/05 04:57:29;;;;;;;;;;;;;;;20.01;44.76;100628.66;20634517;28;100978;-76
2022/03/05 05:07:30;;;;;;;;;;;;;;;19.98;45.29;100642.88;20630705;28;99101;-77
2022/03/05 05:17:34;;;;;;;;;;;;;;;20.07;44.77;100630.03;20641318;28;100163;-76
2022/03/05 05:27:36;;;;;;;;;;;;;;;20.15;44.79;100644.34;20634264;27;97687;-77
2022/03/05 05:37:36;;;;;;;;;;;;;;;20.23;44.81;100659.56;20635063;27;97069;-77
2022/03/05 05:47:37;;;;;;;;;;;;;;;20.29;44.79;100655.69;20643392;28;100038;-77
2022/03/05 05:57:38;;;;;;;;;;;;;;;20.37;44.08;100676.19;20641659;27;97936;-77
2022/03/05 06:07:38;;;;;;;;;;;;;;;20.42;44.11;100684.59;20634777;27;97978;-77
2022/03/05 06:17:42;;;;;;;;;;;;;;;20.46;43.91;100686.06;20641064;27;98714;-77
2022/03/05 06:27:42;;;;;;;;;;;;;;;20.55;44.58;100692.47;20641113;28;99652;-75
2022/03/05 06:37:43;;;;;;;;;;;;;;;20.61;44.44;100699.94;20621429;28;99319;-76
2022/03/05 06:47:43;;;;;;;;;;;;;;;20.67;44.39;100701.31;20635962;28;97197;-76
2022/03/05 06:57:44;;;;;;;;;;;;;;;20.74;45.22;100713.13;20629274;27;97908;-76
2022/03/05 07:07:45;;;;;;;;;;;;;;;20.82;45.39;100710.78;20634285;27;98448;-76
2022/03/05 07:17:49;;;;;;;;;;;;;;;20.91;46.08;100712.75;20629239;27;98054;-76
2022/03/05 07:27:50;;;;;;;;;;;;;;;20.98;45.91;100722.84;20643698;27;97257;-76
2022/03/05 07:37:51;;;;;;;;;;;;;;;21.05;46.31;100724.09;20627741;28;97629;-77
2022/03/05 07:47:52;;;;;;;;;;;;;;;21.09;46.64;100731.69;20617358;27;101375;-80
2022/03/05 07:57:54;;;;;;;;;;;;;;;21.12;46.05;100735.88;20649651;27;100461;-79
2022/03/05 08:07:55;;;;;;;;;;;;;;;21.12;46.14;100746.41;20641812;28;97118;-79
2022/03/05 08:17:56;;;;;;;;;;;;;;;21.13;44.35;100745.47;20650561;28;100962;-78
2022/03/05 08:27:57;;;;;;;;;;;;;;;21.06;43.17;100747.69;20630479;27;97704;-78
2022/03/05 08:37:57;;;;;;;;;;;;;;;21.10;43.84;100751.78;20621997;28;97350;-79
2022/03/05 08:47:58;;;;;;;;;;;;;;;21.13;44.33;100752.50;20611790;28;101403;-78
2022/03/05 08:57:58;;;;;;;;;;;;;;;21.16;44.20;100754.94;20611939;28;97763;-79
2022/03/05 09:07:58;;;;;;;;;;;;;;;21.18;44.03;100747.75;20611767;28;100998;-78
2022/03/05 09:17:58;;;;;;;;;;;;;;;21.20;44.22;100745.84;20617907;27;100053;-79
2022/03/05 09:27:59;;;;;;;;;;;;;;;21.21;43.89;100740.47;20628394;27;101316;-79
2022/03/05 09:37:59;;;;;;;;;;;;;;;21.23;43.48;100740.38;20632960;27;99176;-79
2022/03/05 09:48:00;;;;;;;;;;;;;;;21.25;44.15;100733.19;20622110;28;97499;-79
2022/03/05 09:58:00;;;;;;;;;;;;;;;21.28;43.55;100723.28;20613097;28;98332;-79
2022/03/05 10:08:10;;;;;;;;;;;;;;;21.31;43.70;100722.19;20622870;27;96942;-80
2022/03/05 10:18:10;;;;;;;;;;;;;;;21.36;43.71;100722.72;20595085;27;99430;-77
2022/03/05 10:28:13;;;;;;;;;;;;;;;21.33;43.75;100715.03;20610457;28;100961;-78
2022/03/05 10:38:13;;;;;;;;;;;;;;;21.35;43.70;100712.28;20597629;28;101114;-80
2022/03/05 10:48:24;;;;;;;;;;;;;;;21.37;43.88;100720.91;20624751;27;98458;-80
2022/03/05 10:58:25;;;;;;;;;;;;;;;20.12;31.29;100717.31;20596906;28;98448;-77
2022/03/05 11:08:26;;;;;;;;;;;;;;;20.63;34.25;100706.78;20599840;27;97719;-78
2022/03/05 11:18:26;;;;;;;;;;;;;;;20.84;37.58;100703.63;20607296;28;98052;-77
2022/03/05 11:28:34;;;;;;;;;;;;;;;20.94;37.79;100694.09;20603789;28;98297;-78
2022/03/05 11:38:35;;;;;;;;;;;;;;;20.99;38.32;100679.78;20575746;27;99694;-78
2022/03/05 11:48:36;;;;;;;;;;;;;;;21.02;38.60;100671.66;20599504;27;98475;-79
2022/03/05 11:58:38;;;;;;;;;;;;;;;21.03;38.97;100666.28;20585894;27;98440;-79
2022/03/05 12:08:38;;;;;;;;;;;;;;;21.08;39.40;100663.31;20631697;27;98839;-79
2022/03/05 12:18:39;;;;;;;;;;;;;;;21.14;41.26;100664.66;20616467;27;98246;-78
2022/03/05 12:28:41;;;;;;;;;;;;;;;21.22;44.78;100657.88;20626144;27;99466;-80
2022/03/05 12:38:42;;;;;;;;;;;;;;;21.24;45.14;100653.34;20604303;27;99443;-78
2022/03/05 12:48:43;;;;;;;;;;;;;;;21.24;42.87;100649.88;20646113;28;96927;-78
2022/03/05 12:58:43;;;;;;;;;;;;;;;21.24;43.05;100645.44;20643444;27;100888;-77
2022/03/05 13:08:44;;;;;;;;;;;;;;;21.24;42.84;100648.06;20654842;28;97771;-78
2022/03/05 13:18:53;;;;;;;;;;;;;;;21.21;42.58;100650.94;20642605;27;98307;-77
2022/03/05 13:28:55;;;;;;;;;;;;;;;21.22;43.02;100654.41;20644148;28;99780;-78
2022/03/05 13:39:12;;;;;;;;;;;;;;;21.20;42.96;100644.00;20654279;27;97190;-79
2022/03/05 13:49:19;;;;;;;;;;;;;;;21.18;43.28;100635.38;20662301;28;97620;-78
2022/03/05 13:59:20;;;;;;;;;;;;;;;21.19;42.69;100638.81;20644168;27;97652;-78
2022/03/05 14:09:25;;;;;;;;;;;;;;;21.17;42.91;100638.13;20642237;27;97625;-80
2022/03/05 14:19:29;;;;;;;;;;;;;;;21.19;43.76;100630.94;20646413;28;97924;-79
2022/03/05 14:29:30;;;;;;;;;;;;;;;21.17;43.70;100631.03;20668060;27;97586;-80
2022/03/05 14:39:31;;;;;;;;;;;;;;;21.13;44.22;100620.84;20652134;28;98473;-79
2022/03/05 14:49:31;;;;;;;;;;;;;;;21.13;43.34;100624.34;20657162;28;97030;-78
2022/03/05 14:59:32;;;;;;;;;;;;;;;21.09;43.04;100623.72;20642596;27;99631;-79
2022/03/05 15:09:32;;;;;;;;;;;;;;;21.03;43.17;100612.78;20652275;27;98776;-80
2022/03/05 15:19:32;;;;;;;;;;;;;;;21.01;43.11;100626.06;20643156;27;100363;-78
2022/03/05 15:29:33;;;;;;;;;;;;;;;21.03;43.94;100625.94;20631558;28;98727;-77
2022/03/05 15:39:33;;;;;;;;;;;;;;;21.02;43.60;100627.75;20637695;28;99256;-78
2022/03/05 15:49:33;;;;;;;;;;;;;;;21.02;43.38;100638.28;20623313;28;99343;-78
2022/03/05 15:59:34;;;;;;;;;;;;;;;21.03;43.25;100647.00;20640534;28;97514;-80
2022/03/05 16:09:34;;;;;;;;;;;;;;;21.05;43.95;100635.41;20625281;28;101544;-78
2022/03/05 16:19:35;;;;;;;;;;;;;;;21.06;43.39;100645.00;20638944;28;99134;-77
2022/03/05 16:29:35;;;;;;;;;;;;;;;21.05;43.76;100659.09;20625857;28;97089;-77
2022/03/05 16:39:35;;;;;;;;;;;;;;;20.97;37.02;100666.75;20639700;28;97425;-78
2022/03/05 16:49:38;;;;;;;;;;;;;;;20.83;33.94;100678.25;20645920;27;100357;-78
2022/03/05 16:59:39;;;;;;;;;;;;;;;20.71;32.21;100685.19;20673832;27;98102;-82
2022/03/05 17:09:45;;;;;;;;;;;;;;;20.87;38.61;100692.88;20671528;27;101231;-85
2022/03/05 17:19:45;;;;;;;;;;;;;;;20.91;39.66;100689.06;20648921;28;97396;-85
2022/03/05 17:29:47;;;;;;;;;;;;;;;20.95;40.52;100705.50;20701757;27;97374;-83
2022/03/05 17:39:47;;;;;;;;;;;;;;;20.97;41.02;100708.88;20675837;28;98660;-84
2022/03/05 17:49:48;;;;;;;;;;;;;;;20.98;40.98;100728.13;20671399;28;100411;-84
2022/03/05 17:59:48;;;;;;;;;;;;;;;20.96;41.25;100736.13;20672381;28;97876;-80
2022/03/05 18:09:48;;;;;;;;;;;;;;;20.76;33.63;100735.75;20669513;27;99141;-80
2022/03/05 18:19:48;;;;;;;;;;;;;;;20.79;38.09;100737.31;20675343;27;97526;-83
2022/03/05 18:29:49;;;;;;;;;;;;;;;20.86;38.56;100742.97;20680601;27;97066;-84
2022/03/05 18:39:54;;;;;;;;;;;;;;;20.90;39.83;100750.56;20696008;28;97953;-82
2022/03/05 18:49:54;;;;;;;;;;;;;;;20.92;40.75;100756.56;20686752;28;101988;-79
2022/03/05 18:59:55;;;;;;;;;;;;;;;20.92;40.66;100763.59;20688144;27;99749;-79
2022/03/05 19:09:55;;;;;;;;;;;;;;;20.94;41.39;100761.72;20684243;28;97815;-79
2022/03/05 19:19:56;;;;;;;;;;;;;;;20.95;41.88;100773.94;20672882;28;96935;-78
2022/03/05 19:29:56;;;;;;;;;;;;;;;20.97;42.32;100777.31;20672207;28;98315;-78
2022/03/05 19:39:56;;;;;;;;;;;;;;;20.97;42.36;100797.50;20642644;27;97890;-79
2022/03/05 19:49:57;;;;;;;;;;;;;;;20.97;42.63;100803.63;20647198;28;99447;-79
2022/03/05 19:59:57;;;;;;;;;;;;;;;20.97;42.59;100801.00;20674440;28;98256;-79
2022/03/05 20:09:59;;;;;;;;;;;;;;;20.99;42.52;100806.16;20703342;27;98915;-80
2022/03/05 20:20:03;;;;;;;;;;;;;;;21.02;43.22;100805.91;20684870;27;100522;-79
2022/03/05 20:30:04;;;;;;;;;;;;;;;21.00;42.66;100808.66;20689596;27;97823;-82
2022/03/05 20:40:06;;;;;;;;;;;;;;;20.99;43.30;100811.41;20682488;27;98478;-79
2022/03/05 20:50:08;;;;;;;;;;;;;;;20.92;42.97;100813.63;20678333;28;99368;-80
2022/03/05 21:00:11;;;;;;;;;;;;;;;20.91;42.45;100825.09;20689836;27;97569;-80
2022/03/05 21:10:12;;;;;;;;;;;;;;;20.88;42.48;100827.94;20652153;27;97347;-79
2022/03/05 21:20:14;;;;;;;;;;;;;;;20.85;42.32;100822.88;20670101;28;97759;-79
2022/03/05 21:30:14;;;;;;;;;;;;;;;20.82;42.62;100821.31;20654624;28;101910;-79
2022/03/05 21:40:15;;;;;;;;;;;;;;;20.79;42.85;100822.38;20646018;28;99175;-78
2022/03/05 21:50:16;;;;;;;;;;;;;;;20.77;42.96;100815.53;20660639;27;98016;-79
2022/03/05 22:00:16;;;;;;;;;;;;;;;20.78;43.15;100814.59;20662642;28;98299;-79
2022/03/05 22:10:17;;;;;;;;;;;;;;;20.77;43.33;100805.00;20632853;28;97220;-78
2022/03/05 22:20:22;;;;;;;;;;;;;;;20.74;43.73;100800.78;20630352;28;97138;-79
2022/03/05 22:30:23;;;;;;;;;;;;;;;20.72;43.80;100801.84;20639789;27;100354;-78
2022/03/05 22:40:23;;;;;;;;;;;;;;;20.71;43.85;100793.06;20638818;28;100839;-78
2022/03/05 22:50:24;;;;;;;;;;;;;;;20.67;43.63;100790.78;20645505;27;99968;-78
2022/03/05 23:00:27;;;;;;;;;;;;;;;20.65;43.56;100790.84;20656089;27;98302;-79
2022/03/05 23:10:28;;;;;;;;;;;;;;;20.59;43.90;100778.13;20625240;28;97907;-79
2022/03/05 23:20:29;;;;;;;;;;;;;;;20.55;44.10;100768.78;20642849;28;101346;-79
2022/03/05 23:30:30;;;;;;;;;;;;;;;20.50;43.92;100765.63;20650391;27;99110;-79
2022/03/05 23:40:31;;;;;;;;;;;;;;;20.51;43.95;100764.66;20656356;27;101348;-79
2022/03/05 23:50:33;;;;;;;;;;;;;;;20.42;44.25;100752.97;20660141;27;98129;-79
